Flight Track Log - Related Links

Times and Time Zones

All times are in EDT time to prevent confusion due to time zone crossing. See the SWA1035 flight status page for this flight to view local times or setup timezone preferences in your user account.

Time Position Orientation Groundspeed Altitude Reporting Facility
EDT Latitude Longitude Course Direction KTS MPH feet Rate Location/Type
Tue 07:05:52 AM 42.9500 -71.4167 26° Northeast 164 189 1,300  Level KA90
Tue 07:06:59 AM 43.0000 -71.3833 26° Northeast 205 236 2,500 2,621 Climbing KA90
Tue 07:09:02 AM 43.0481 -71.2069 70° East 239 275 9,600 3,639 Climbing Boston Center
Tue 07:10:02 AM 43.0261 -71.1081 107° East 266 306 13,600 3,700 Climbing Boston Center
Tue 07:11:02 AM 42.9567 -71.0500 149° Southeast 270 311 17,000 3,000 Climbing Boston Center
Tue 07:12:02 AM 42.8872 -70.9950 150° Southeast 295 339 19,600 2,300 Climbing Boston Center
Tue 07:13:02 AM 42.7953 -70.9689 168° South 322 371 21,600 2,000 Climbing Boston Center
Tue 07:14:02 AM 42.6917 -71.0250 202° Southwest 336 387 23,600 2,300 Climbing Boston Center
Tue 07:15:02 AM 42.5925 -71.1006 209° Southwest 388 447 26,200 2,600 Climbing Boston Center
Tue 07:16:02 AM 42.5192 -71.2542 237° Southwest 398 458 28,800 2,150 Climbing Boston Center
Tue 07:17:02 AM 42.4497 -71.3906 235° Southwest 429 494 30,500 1,900 Climbing Boston Center
Tue 07:18:02 AM 42.3781 -71.5267 235° Southwest 443 510 32,600 2,100 Climbing Boston Center
Tue 07:19:02 AM 42.3039 -71.6597 233° Southwest 455 524 34,700 1,950 Climbing Boston Center
Tue 07:20:02 AM 42.2339 -71.7953 235° Southwest 455 524 36,500 1,650 Climbing Boston Center
Tue 07:21:02 AM 42.1658 -71.9303 236° Southwest 455 524 38,000 1,550 Climbing Boston Center
Tue 07:22:02 AM 42.0956 -72.0625 234° Southwest 450 518 39,600 1,000 Climbing Boston Center
Tue 07:23:02 AM 42.0292 -72.1886 235° Southwest 437 503 40,000 200 Climbing Boston Center
Tue 07:24:02 AM 41.9606 -72.3200 235° Southwest 437 503 40,000  Level Boston Center
Tue 07:25:02 AM 41.8897 -72.4514 234° Southwest 437 503 40,000  Level Boston Center
Tue 07:26:02 AM 41.8231 -72.5822 236° Southwest 432 497 40,000  Level Boston Center
Tue 07:27:02 AM 41.7519 -72.7128 234° Southwest 432 497 40,000  Level Boston Center
Tue 07:28:02 AM 41.6828 -72.8431 235° Southwest 432 497 40,000  Level Boston Center
Tue 07:29:02 AM 41.6133 -72.9733 235° Southwest 432 497 40,000  Level Boston Center
Tue 07:30:02 AM 41.5439 -73.0975 233° Southwest 432 497 40,000  Level Boston Center
Tue 07:31:02 AM 41.4850 -73.2106 235° Southwest 427 491 40,000  Level Boston Center
Tue 07:32:53 AM 41.3564 -73.4439 234° Southwest 415 478 40,000  Level New York Center
Tue 07:33:53 AM 41.2867 -73.5736 234° Southwest 425 489 40,000  Level New York Center
Tue 07:34:54 AM 41.2147 -73.7003 233° Southwest 430 495 40,000  Level New York Center
Tue 07:35:55 AM 41.1408 -73.8239 232° Southwest 430 495 40,000  Level New York Center
Tue 07:36:53 AM 41.0669 -73.9469 231° Southwest 430 495 40,000  Level New York Center
Tue 07:37:53 AM 40.9947 -74.0728 233° Southwest 430 495 40,000  Level New York Center
Tue 07:38:54 AM 40.9075 -74.2058 229° Southwest 435 501 40,000  Level New York Center
Tue 07:39:54 AM 40.8331 -74.3283 231° Southwest 435 501 40,000  Level New York Center
Tue 07:40:55 AM 40.7606 -74.4531 233° Southwest 435 501 40,000  Level New York Center
Tue 07:41:53 AM 40.6858 -74.5750 231° Southwest 435 501 40,000  Level New York Center
Tue 07:42:53 AM 40.6086 -74.7019 231° Southwest 435 501 40,000  Level New York Center
Tue 07:43:52 AM 40.5319 -74.8150 228° Southwest 435 501 40,000  Level New York Center
Tue 07:44:53 AM 40.4508 -74.9303 227° Southwest 430 495 40,000  Level New York Center
Tue 07:45:53 AM 40.3717 -75.0425 227° Southwest 430 495 40,000  Level New York Center
Tue 07:46:54 AM 40.2969 -75.1469 227° Southwest 429 494 40,000  Level New York Center
Tue 07:47:53 AM 40.2200 -75.2589 228° Southwest 429 494 40,000  Level New York Center
Tue 07:48:54 AM 40.1406 -75.3678 226° Southwest 424 488 40,000  Level New York Center
Tue 07:49:54 AM 40.0592 -75.4792 226° Southwest 424 488 40,000  Level New York Center
Tue 07:50:55 AM 39.9817 -75.5903 228° Southwest 424 488 40,000  Level New York Center
Tue 07:51:52 AM 39.9000 -75.7036 227° Southwest 430 495 40,000  Level New York Center
Tue 07:53:56 AM 39.7506 -75.9425 231° Southwest 415 478 40,000  Level Washington Center
Tue 07:54:57 AM 39.6794 -76.0606 232° Southwest 415 478 40,000  Level Washington Center
Tue 07:55:57 AM 39.5933 -76.1919 230° Southwest 429 494 40,000  Level Washington Center
Tue 07:56:57 AM 39.5156 -76.3044 228° Southwest 434 499 40,000  Level Washington Center
Tue 07:57:58 AM 39.4419 -76.4219 231° Southwest 423 487 40,000  Level Washington Center
Tue 07:58:58 AM 39.3725 -76.5258 229° Southwest 423 487 40,000  Level Washington Center
Tue 07:59:56 AM 39.2842 -76.6267 221° Southwest 428 493 40,000  Level Washington Center
Tue 08:00:56 AM 39.1936 -76.7244 220° Southwest 428 493 40,000  Level Washington Center
Tue 08:01:57 AM 39.1031 -76.8219 220° Southwest 428 493 40,000  Level Washington Center
Tue 08:02:58 AM 39.0144 -76.9194 221° Southwest 434 499 40,000  Level Washington Center
Tue 08:03:55 AM 38.9258 -77.0164 220° Southwest 434 499 40,000  Level Washington Center
Tue 08:04:56 AM 38.8328 -77.1158 220° Southwest 434 499 40,000  Level Washington Center
Tue 08:05:57 AM 38.7419 -77.2125 220° Southwest 434 499 40,000  Level Washington Center
Tue 08:06:58 AM 38.6531 -77.3117 221° Southwest 434 499 40,000  Level Washington Center
Tue 08:07:58 AM 38.5619 -77.4078 220° Southwest 439 505 40,000  Level Washington Center
Tue 08:08:55 AM 38.4686 -77.5064 220° Southwest 439 505 40,000  Level Washington Center
Tue 08:09:56 AM 38.3733 -77.5939 216° Southwest 439 505 40,000  Level Washington Center
Tue 08:10:57 AM 38.2781 -77.6786 215° Southwest 434 499 40,000  Level Washington Center
Tue 08:11:57 AM 38.1786 -77.7631 214° Southwest 434 499 40,000  Level Washington Center
Tue 08:12:58 AM 38.0811 -77.8472 214° Southwest 434 499 40,000  Level Washington Center
Tue 08:13:58 AM 37.9836 -77.9286 213° Southwest 434 499 40,000  Level Washington Center
Tue 08:14:56 AM 37.8819 -78.0122 213° Southwest 434 499 40,000  Level Washington Center
Tue 08:15:57 AM 37.7842 -78.0986 215° Southwest 434 499 40,000  Level Washington Center
Tue 08:16:57 AM 37.6864 -78.1819 214° Southwest 434 499 40,000  Level Washington Center
Tue 08:17:57 AM 37.5844 -78.2675 214° Southwest 434 499 40,000  Level Washington Center
Tue 08:18:56 AM 37.4825 -78.3503 213° Southwest 434 499 40,000  Level Washington Center
Tue 08:19:56 AM 37.3825 -78.4331 213° Southwest 434 499 40,000  Level Washington Center
Tue 08:20:56 AM 37.2717 -78.5281 214° Southwest 441 507 40,000  Level Washington Center
Tue 08:21:57 AM 37.1694 -78.6100 213° Southwest 441 507 40,000  Level Washington Center
Tue 08:22:57 AM 37.0694 -78.6922 213° Southwest 441 507 40,000  Level Washington Center
Tue 08:23:58 AM 36.9692 -78.7711 212° Southwest 441 507 40,000  Level Washington Center
Tue 08:24:58 AM 36.8797 -78.8481 215° Southwest 441 507 40,000  Level Washington Center
Tue 08:25:58 AM 36.7794 -78.9294 213° Southwest 441 507 40,000  Level Washington Center
Tue 08:26:56 AM 36.6789 -79.0106 213° Southwest 441 507 40,000  Level Washington Center
Tue 08:27:56 AM 36.5700 -79.0964 212° Southwest 435 501 40,000  Level Washington Center
Tue 08:28:57 AM 36.4722 -79.1642 209° Southwest 435 501 40,000  Level Washington Center
Tue 08:29:58 AM 36.3650 -79.2522 213° Southwest 435 501 40,000  Level Washington Center
Tue 08:30:55 AM 36.2625 -79.3297 211° Southwest 440 506 40,000  Level Washington Center
Tue 08:31:57 AM 36.1600 -79.4047 211° Southwest 440 506 40,000  Level Washington Center
Tue 08:33:57 AM 35.9614 -79.5417 209° Southwest 434 499 40,000  Level Atlanta Center
Tue 08:34:57 AM 35.8681 -79.6186 214° Southwest 434 499 40,000  Level Atlanta Center
Tue 08:35:57 AM 35.7539 -79.6911 207° Southwest 434 499 40,000  Level Atlanta Center
Tue 08:36:57 AM 35.6425 -79.7842 214° Southwest 434 499 40,000  Level Atlanta Center
Tue 08:37:57 AM 35.5364 -79.8583 210° Southwest 440 506 40,000  Level Atlanta Center
Tue 08:38:57 AM 35.4300 -79.9175 204° Southwest 433 498 40,000  Level Atlanta Center
Tue 08:39:57 AM 35.3317 -79.9706 204° Southwest 428 493 40,000  Level Atlanta Center
Tue 08:40:57 AM 35.2211 -80.0344 205° Southwest 438 504 40,000  Level Atlanta Center
Tue 08:41:57 AM 35.1144 -80.0931 204° Southwest 432 497 40,000  Level Atlanta Center
Tue 08:43:26 AM 34.9547 -80.1850 205° Southwest 427 491 40,000  Level Jacksonville Center
Tue 08:44:26 AM 34.8456 -80.2467 205° Southwest 427 491 40,000  Level Jacksonville Center
Tue 08:45:26 AM 34.7300 -80.3133 205° Southwest 421 484 40,000  Level Jacksonville Center
Tue 08:46:26 AM 34.6228 -80.3747 205° Southwest 421 484 40,000  Level Jacksonville Center
Tue 08:47:26 AM 34.5133 -80.4333 204° Southwest 426 490 40,000  Level Jacksonville Center
Tue 08:48:26 AM 34.4039 -80.4917 204° Southwest 426 490 40,000  Level Jacksonville Center
Tue 08:49:26 AM 34.2989 -80.5575 207° Southwest 426 490 40,000  Level Jacksonville Center
Tue 08:50:26 AM 34.1914 -80.6131 203° Southwest 426 490 40,000  Level Jacksonville Center
Tue 08:51:26 AM 34.0839 -80.6736 205° Southwest 431 496 40,000  Level Jacksonville Center
Tue 08:52:26 AM 33.9744 -80.7339 205° Southwest 431 496 40,000  Level Jacksonville Center
Tue 08:53:26 AM 33.8669 -80.7917 204° Southwest 431 496 40,000  Level Jacksonville Center
Tue 08:54:26 AM 33.7675 -80.8439 204° Southwest 436 502 40,000  Level Jacksonville Center
Tue 08:55:26 AM 33.6600 -80.9039 205° Southwest 436 502 40,000  Level Jacksonville Center
Tue 08:56:26 AM 33.5544 -80.9611 204° Southwest 436 502 40,000  Level Jacksonville Center
Tue 08:57:26 AM 33.4489 -81.0181 204° Southwest 436 502 40,000  Level Jacksonville Center
Tue 08:58:26 AM 33.3414 -81.0750 204° Southwest 431 496 40,000  Level Jacksonville Center
Tue 08:59:26 AM 33.2356 -81.1319 204° Southwest 431 496 40,000  Level Jacksonville Center
Tue 09:00:26 AM 33.1300 -81.1908 205° Southwest 421 484 40,000  Level Jacksonville Center
Tue 09:01:26 AM 33.0242 -81.2450 203° Southwest 421 484 40,000  Level Jacksonville Center
Tue 09:02:26 AM 32.9144 -81.3064 205° Southwest 426 490 40,000  Level Jacksonville Center
Tue 09:03:26 AM 32.8067 -81.3628 204° Southwest 426 490 40,000  Level Jacksonville Center
Tue 09:04:26 AM 32.7008 -81.4189 204° Southwest 421 484 40,000  Level Jacksonville Center
Tue 09:05:26 AM 32.5950 -81.4747 204° Southwest 421 484 40,000  Level Jacksonville Center
Tue 09:06:26 AM 32.4808 -81.5381 205° Southwest 421 484 40,000  Level Jacksonville Center
Tue 09:07:26 AM 32.3853 -81.5861 203° Southwest 413 475 40,000  Level Jacksonville Center
Tue 09:08:26 AM 32.2689 -81.6469 204° Southwest 413 475 40,000  Level Jacksonville Center
Tue 09:09:26 AM 32.1650 -81.7022 204° Southwest 413 475 40,000  Level Jacksonville Center
Tue 09:10:26 AM 32.0633 -81.7575 205° Southwest 408 470 40,000  Level Jacksonville Center
Tue 09:11:26 AM 31.9697 -81.8078 204° Southwest 413 475 40,000  Level Jacksonville Center
Tue 09:12:26 AM 31.8533 -81.8653 203° Southwest 418 481 40,000  Level Jacksonville Center
Tue 09:13:26 AM 31.7514 -81.9178 204° Southwest 413 475 40,000  Level Jacksonville Center
Tue 09:14:26 AM 31.6475 -81.9700 203° Southwest 413 475 40,000  Level Jacksonville Center
Tue 09:15:26 AM 31.5436 -82.0272 205° Southwest 418 481 40,000  Level Jacksonville Center
Tue 09:16:26 AM 31.4353 -82.0794 202° Southwest 420 483 40,000  Level Jacksonville Center
Tue 09:17:26 AM 31.3164 -82.0972 187° South 425 489 40,000 -350 Level Jacksonville Center
Tue 09:18:26 AM 31.1953 -82.1178 188° South 432 497 39,300 -850 Descending Jacksonville Center
Tue 09:19:26 AM 31.0806 -82.1358 188° South 432 497 38,300 -650 Descending Jacksonville Center
Tue 09:20:26 AM 30.9639 -82.1536 187° South 426 490 38,000 -150 Descending Jacksonville Center
Tue 09:21:26 AM 30.8469 -82.1692 187° South 426 490 38,000  Level Jacksonville Center
Tue 09:22:26 AM 30.7322 -82.1869 188° South 426 490 38,000  Level Jacksonville Center
Tue 09:23:26 AM 30.6175 -82.2047 188° South 426 490 38,000  Level Jacksonville Center
Tue 09:24:26 AM 30.5006 -82.2175 185° South 426 490 38,000 -150 Level Jacksonville Center
Tue 09:25:26 AM 30.3881 -82.2353 188° South 426 490 37,700 -650 Descending Jacksonville Center
Tue 09:26:26 AM 30.2753 -82.2528 188° South 421 484 36,700 -950 Descending Jacksonville Center
Tue 09:27:26 AM 30.1606 -82.2703 188° South 421 484 35,800 -950 Descending Jacksonville Center
Tue 09:28:26 AM 30.0481 -82.2878 188° South 410 472 34,800 -900 Descending Jacksonville Center
Tue 09:29:26 AM 29.9458 -82.3078 190° South 410 472 34,000 -900 Descending Jacksonville Center
Tue 09:30:26 AM 29.8311 -82.3228 186° South 410 472 33,000 -2,150 Descending Jacksonville Center
Tue 09:31:26 AM 29.7036 -82.3403 187° South 410 472 29,700 -2,800 Descending Jacksonville Center
Tue 09:32:26 AM 29.6097 -82.3550 188° South 416 479 27,400 -1,700 Descending Jacksonville Center
Tue 09:33:26 AM 29.4825 -82.3486 177° South 421 484 26,300 -1,050 Descending Jacksonville Center
Tue 09:34:26 AM 29.3656 -82.3325 173° South 421 484 25,300 -1,350 Descending Jacksonville Center
Tue 09:35:26 AM 29.2486 -82.3189 174° South 421 484 23,600 -2,100 Descending Jacksonville Center
Tue 09:36:26 AM 29.1400 -82.3053 174° South 416 479 21,100 -2,450 Descending Jacksonville Center
Tue 09:37:26 AM 29.0333 -82.2942 175° South 403 464 18,700 -2,450 Descending Jacksonville Center
Tue 09:38:26 AM 28.9247 -82.2806 174° South 397 457 16,200 -1,700 Descending Jacksonville Center
Tue 09:39:26 AM 28.8289 -82.2692 174° South 378 435 15,300 -1,070 Descending Jacksonville Center
Tue 09:41:31 AM 28.6167 -82.2500 175° South 323 372 12,900 -1,070 Descending Tampa TRACON
Tue 09:42:31 AM 28.5333 -82.2500 180° South 311 358 12,000 -750 Descending Tampa TRACON
Tue 09:43:31 AM 28.4500 -82.2500 180° South 302 348 11,400 -1,150 Descending Tampa TRACON
Tue 09:44:31 AM 28.3833 -82.2833 204° Southwest 291 335 9,700 -1,857 Descending Tampa TRACON
Tue 09:45:37 AM 28.3000 -82.3167 199° South 275 316 7,500 -1,762 Descending Tampa TRACON
Tue 09:46:37 AM 28.2833 -82.4000 257° West 246 283 6,000 -1,571 Descending Tampa TRACON
Tue 09:47:43 AM 28.2667 -82.4833 257° West 242 278 4,200 -1,289 Descending Tampa TRACON
Tue 09:48:38 AM 28.2167 -82.5167 210° Southwest 219 252 3,400 -889 Descending Tampa TRACON
Tue 09:49:31 AM 28.1667 -82.5167 180° South 206 237 2,600 -737 Descending Tampa TRACON
Tue 09:50:32 AM 28.1167 -82.5167 180° South 184 212 2,000 -450 Descending Tampa TRACON
Tue 09:51:31 AM 28.0667 -82.5333 196° South 159 183 1,700 -474 Descending Tampa TRACON
Tue 09:52:26 AM 28.0333 -82.5333 180° South 129 148 1,100 -655 Descending Tampa TRACON

Login

Don't have an account? Register now (free) for customized features, flight alerts, and more!